Time;durP1;ratioP1;P1;durP2;ratioP2;P2;SDS_P1;SDS_P2;PMS_P1;PMS_P2;Temp;Humidity;BMP_temperature;BMP_pressure;BME280_temperature;BME280_humidity;BME280_pressure;Samples;Min_cycle;Max_cycle;Signal;HPM_P1;HPM_P2
2022/05/10 00:00:49;;;;;;;8.77;6.90;;;;;;;;;;4951528;29;20282;-74
2022/05/10 00:03:17;;;;;;;6.93;6.23;;;;;;;;;;4951867;29;20223;-74
2022/05/10 00:05:44;;;;;;;9.00;6.23;;;;;;;;;;4949275;28;20253;-74
2022/05/10 00:08:13;;;;;;;7.03;6.33;;;;;;;;;;4950652;29;20314;-74
2022/05/10 00:10:41;;;;;;;8.53;6.80;;;;;;;;;;4947555;29;20310;-74
2022/05/10 00:13:08;;;;;;;9.77;7.17;;;;;;;;;;4945432;29;20263;-74
2022/05/10 00:15:37;;;;;;;10.13;7.20;;;;;;;;;;4945798;29;20263;-74
2022/05/10 00:18:04;;;;;;;7.60;6.37;;;;;;;;;;4948500;29;20199;-74
2022/05/10 00:20:32;;;;;;;10.43;7.37;;;;;;;;;;4939655;29;20250;-74
2022/05/10 00:22:59;;;;;;;8.73;7.30;;;;;;;;;;4946605;29;20286;-74
2022/05/10 00:25:27;;;;;;;8.50;6.67;;;;;;;;;;4947612;29;20325;-74
2022/05/10 00:27:55;;;;;;;8.97;7.07;;;;;;;;;;4945073;29;20272;-74
2022/05/10 00:30:22;;;;;;;8.47;7.37;;;;;;;;;;4943787;29;20317;-74
2022/05/10 00:32:50;;;;;;;8.20;7.20;;;;;;;;;;4945495;29;20605;-74
2022/05/10 00:37:59;;;;;;;9.03;7.63;;;;;;;;;;5340296;23;20242;-74
2022/05/10 00:40:28;;;;;;;8.37;6.70;;;;;;;;;;4950206;28;20302;-75
2022/05/10 00:42:57;;;;;;;8.20;6.77;;;;;;;;;;4944887;28;20287;-75
2022/05/10 00:45:27;;;;;;;8.73;7.13;;;;;;;;;;4946954;29;20291;-75
2022/05/10 00:48:03;;;;;;;8.93;6.57;;;;;;;;;;4941923;29;20766;-75
2022/05/10 00:50:34;;;;;;;7.43;6.63;;;;;;;;;;4945385;29;20239;-75
2022/05/10 00:53:04;;;;;;;8.37;6.90;;;;;;;;;;4948344;29;20663;-75
2022/05/10 00:55:35;;;;;;;7.20;6.50;;;;;;;;;;4941632;29;20655;-75
2022/05/10 00:58:05;;;;;;;7.20;6.40;;;;;;;;;;4951120;28;20207;-75
2022/05/10 01:00:33;;;;;;;8.80;7.00;;;;;;;;;;4946848;29;20227;-75
2022/05/10 01:03:07;;;;;;;7.40;6.70;;;;;;;;;;4937390;29;20235;-75
2022/05/10 01:05:45;;;;;;;9.30;6.40;;;;;;;;;;4937599;28;20235;-75
2022/05/10 01:08:14;;;;;;;6.93;6.23;;;;;;;;;;4947770;29;20282;-75
2022/05/10 01:10:43;;;;;;;6.80;6.10;;;;;;;;;;4949319;28;20624;-75
2022/05/10 01:13:16;;;;;;;7.47;6.60;;;;;;;;;;4937652;29;20254;-75
2022/05/10 01:15:45;;;;;;;7.63;6.50;;;;;;;;;;4935230;29;20267;-75
2022/05/10 01:18:14;;;;;;;7.50;6.30;;;;;;;;;;4936019;29;20265;-74
2022/05/10 01:20:43;;;;;;;9.60;7.23;;;;;;;;;;4936520;29;20622;-75
2022/05/10 01:23:28;;;;;;;9.03;6.60;;;;;;;;;;4936359;29;20223;-75
2022/05/10 01:26:00;;;;;;;7.23;6.37;;;;;;;;;;4939901;29;20714;-75
2022/05/10 01:28:30;;;;;;;8.77;7.23;;;;;;;;;;4952373;28;20319;-74
2022/05/10 01:31:00;;;;;;;7.93;6.73;;;;;;;;;;4944647;28;20221;-75
2022/05/10 01:33:31;;;;;;;10.80;7.00;;;;;;;;;;4955071;28;20207;-75
2022/05/10 01:36:06;;;;;;;9.87;7.90;;;;;;;;;;4937818;29;20558;-75
2022/05/10 01:38:36;;;;;;;8.63;7.50;;;;;;;;;;4940162;29;20262;-75
2022/05/10 01:41:05;;;;;;;10.97;7.83;;;;;;;;;;4952825;28;20242;-74
2022/05/10 01:43:36;;;;;;;9.40;7.40;;;;;;;;;;4940984;29;20242;-75
2022/05/10 01:46:07;;;;;;;7.87;7.17;;;;;;;;;;4945871;28;20259;-75
2022/05/10 01:48:37;;;;;;;8.97;8.07;;;;;;;;;;4936467;29;20283;-75
2022/05/10 01:51:08;;;;;;;9.07;7.67;;;;;;;;;;4951764;28;20199;-75
2022/05/10 01:53:37;;;;;;;10.57;7.73;;;;;;;;;;4942265;28;20235;-75
2022/05/10 01:56:05;;;;;;;10.13;8.27;;;;;;;;;;4936204;29;20283;-75
2022/05/10 01:58:33;;;;;;;10.07;7.27;;;;;;;;;;4937458;29;20207;-75
2022/05/10 02:01:05;;;;;;;9.07;8.17;;;;;;;;;;4948982;28;20246;-75
2022/05/10 02:03:36;;;;;;;8.33;7.50;;;;;;;;;;4954926;29;20289;-74
2022/05/10 02:06:24;;;;;;;8.53;7.63;;;;;;;;;;4939564;29;20310;-75
2022/05/10 02:08:56;;;;;;;11.37;8.17;;;;;;;;;;4941665;29;20235;-75
2022/05/10 02:11:24;;;;;;;9.97;7.93;;;;;;;;;;4953672;28;20206;-75
2022/05/10 02:13:54;;;;;;;9.93;7.83;;;;;;;;;;4935713;29;20646;-75
2022/05/10 02:16:25;;;;;;;10.13;7.60;;;;;;;;;;4943275;28;20235;-75
2022/05/10 02:18:56;;;;;;;10.40;7.80;;;;;;;;;;4935620;29;20663;-75
2022/05/10 02:21:26;;;;;;;9.40;6.93;;;;;;;;;;4946256;28;20261;-75
2022/05/10 02:23:57;;;;;;;8.47;7.00;;;;;;;;;;4954353;29;20235;-75
2022/05/10 02:26:27;;;;;;;9.00;6.93;;;;;;;;;;4954256;28;20302;-75
2022/05/10 02:28:58;;;;;;;8.40;7.53;;;;;;;;;;4954132;28;20315;-75
2022/05/10 02:31:29;;;;;;;8.77;7.87;;;;;;;;;;4954432;28;20296;-75
2022/05/10 02:33:55;;;;;;;8.50;7.70;;;;;;;;;;4954622;28;20226;-75
2022/05/10 02:36:23;;;;;;;8.40;7.60;;;;;;;;;;4953683;29;20253;-75
2022/05/10 02:38:50;;;;;;;8.97;7.47;;;;;;;;;;4948536;28;20781;-75
2022/05/10 02:41:19;;;;;;;8.43;7.43;;;;;;;;;;4946461;28;20203;-75
2022/05/10 02:43:49;;;;;;;8.87;7.53;;;;;;;;;;4938330;29;20269;-75
2022/05/10 02:46:17;;;;;;;10.10;7.20;;;;;;;;;;4953888;28;20318;-75
2022/05/10 02:48:47;;;;;;;7.97;7.17;;;;;;;;;;4934692;28;20204;-75
2022/05/10 02:51:15;;;;;;;9.33;8.33;;;;;;;;;;4934825;29;20202;-75
2022/05/10 02:53:42;;;;;;;9.33;7.50;;;;;;;;;;4935152;29;20364;-75
2022/05/10 02:56:10;;;;;;;12.97;8.57;;;;;;;;;;4948732;28;20637;-74
2022/05/10 02:58:46;;;;;;;10.00;8.20;;;;;;;;;;4941347;29;20633;-75
2022/05/10 03:01:16;;;;;;;10.07;7.40;;;;;;;;;;4948213;28;20653;-74
2022/05/10 03:03:43;;;;;;;10.73;7.67;;;;;;;;;;4943918;28;20290;-75
2022/05/10 03:06:15;;;;;;;9.07;8.17;;;;;;;;;;4940940;29;20298;-74
2022/05/10 03:08:42;;;;;;;10.07;8.40;;;;;;;;;;4940995;29;20671;-74
2022/05/10 03:11:09;;;;;;;10.90;8.73;;;;;;;;;;4953873;28;20200;-74
2022/05/10 03:13:37;;;;;;;9.90;8.67;;;;;;;;;;4938686;28;20458;-75
2022/05/10 03:16:04;;;;;;;10.50;8.47;;;;;;;;;;4946763;28;20310;-74
2022/05/10 03:18:32;;;;;;;9.80;8.40;;;;;;;;;;4943339;28;20242;-74
2022/05/10 03:20:59;;;;;;;9.00;8.10;;;;;;;;;;4934795;29;20346;-75
2022/05/10 03:23:28;;;;;;;11.07;8.93;;;;;;;;;;4934663;29;20207;-75
2022/05/10 03:25:55;;;;;;;9.97;8.87;;;;;;;;;;4934663;29;20207;-73
2022/05/10 03:28:23;;;;;;;11.40;9.33;;;;;;;;;;4934824;29;20294;-75
2022/05/10 03:30:50;;;;;;;10.83;9.00;;;;;;;;;;4949420;28;20203;-75
2022/05/10 03:33:17;;;;;;;11.50;9.47;;;;;;;;;;4938434;29;20293;-74
2022/05/10 03:35:45;;;;;;;10.03;8.87;;;;;;;;;;4945642;28;20711;-74
2022/05/10 03:38:12;;;;;;;10.80;9.00;;;;;;;;;;4944882;28;20334;-75
2022/05/10 03:40:41;;;;;;;10.87;8.90;;;;;;;;;;4947789;28;20709;-75
2022/05/10 03:43:09;;;;;;;9.97;8.97;;;;;;;;;;4945404;28;20398;-75
2022/05/10 03:45:36;;;;;;;10.50;9.40;;;;;;;;;;4950155;29;20237;-75
2022/05/10 03:48:04;;;;;;;9.60;8.67;;;;;;;;;;4943230;28;20337;-75
2022/05/10 03:50:31;;;;;;;12.57;8.87;;;;;;;;;;4951235;28;20207;-75
2022/05/10 03:52:58;;;;;;;10.23;9.23;;;;;;;;;;4934072;29;20235;-74
2022/05/10 03:55:26;;;;;;;15.70;9.37;;;;;;;;;;4934496;29;20291;-75
2022/05/10 03:57:55;;;;;;;9.97;8.97;;;;;;;;;;4934370;29;20250;-74
2022/05/10 04:00:23;;;;;;;10.43;9.00;;;;;;;;;;4934558;29;20258;-75
2022/05/10 04:02:51;;;;;;;10.00;8.90;;;;;;;;;;4943774;28;20282;-75
2022/05/10 04:05:18;;;;;;;10.80;9.70;;;;;;;;;;4933849;29;20307;-74
2022/05/10 04:07:45;;;;;;;10.20;9.20;;;;;;;;;;4952146;29;20221;-75
2022/05/10 04:10:13;;;;;;;10.63;9.00;;;;;;;;;;4936284;28;20232;-74
2022/05/10 04:12:41;;;;;;;11.23;10.13;;;;;;;;;;4934370;29;20310;-74
2022/05/10 04:15:11;;;;;;;10.33;9.07;;;;;;;;;;4934521;29;20239;-74
2022/05/10 04:17:38;;;;;;;11.23;9.77;;;;;;;;;;4952246;28;20291;-75
2022/05/10 04:20:08;;;;;;;11.80;10.53;;;;;;;;;;4951961;28;20230;-75
2022/05/10 04:22:35;;;;;;;10.77;9.33;;;;;;;;;;4948075;28;20215;-74
2022/05/10 04:25:03;;;;;;;12.37;9.50;;;;;;;;;;4952690;29;20293;-74
2022/05/10 04:27:30;;;;;;;10.97;9.60;;;;;;;;;;4949485;28;20231;-74
2022/05/10 04:29:57;;;;;;;11.67;9.43;;;;;;;;;;4939806;29;20311;-75
2022/05/10 04:32:26;;;;;;;11.17;9.60;;;;;;;;;;4938343;28;20294;-74
2022/05/10 04:34:53;;;;;;;10.53;9.20;;;;;;;;;;4933659;29;22032;-75
2022/05/10 04:37:20;;;;;;;10.37;8.50;;;;;;;;;;4933992;29;20616;-74
2022/05/10 04:42:32;;;;;;;10.70;8.73;;;;;;;;;;4939911;28;20298;-75
2022/05/10 04:45:00;;;;;;;8.83;7.90;;;;;;;;;;4939586;29;20242;-74
2022/05/10 04:47:29;;;;;;;10.07;7.70;;;;;;;;;;4952213;28;20314;-74
2022/05/10 04:49:56;;;;;;;10.73;9.33;;;;;;;;;;4940941;29;20262;-74
2022/05/10 04:52:23;;;;;;;10.73;8.97;;;;;;;;;;4954068;28;20245;-75
2022/05/10 04:54:50;;;;;;;10.70;8.83;;;;;;;;;;4956422;29;20294;-75
2022/05/10 04:57:17;;;;;;;11.30;9.23;;;;;;;;;;4956105;28;20249;-74
2022/05/10 04:59:45;;;;;;;11.43;9.10;;;;;;;;;;4952922;28;20230;-75
2022/05/10 05:02:13;;;;;;;10.00;8.83;;;;;;;;;;4946911;28;20383;-74
2022/05/10 05:04:41;;;;;;;10.40;9.10;;;;;;;;;;4938781;28;20215;-75
2022/05/10 05:07:09;;;;;;;10.10;9.10;;;;;;;;;;4945466;29;20686;-73
2022/05/10 05:09:36;;;;;;;12.87;9.90;;;;;;;;;;4943497;28;20207;-74
2022/05/10 05:12:04;;;;;;;12.23;9.70;;;;;;;;;;4953438;28;20274;-74
2022/05/10 05:14:32;;;;;;;11.03;9.90;;;;;;;;;;4953509;28;20203;-74
2022/05/10 05:16:59;;;;;;;12.27;10.30;;;;;;;;;;4937109;29;20207;-74
2022/05/10 05:19:26;;;;;;;11.00;9.77;;;;;;;;;;4947058;28;20235;-74
2022/05/10 05:21:55;;;;;;;13.37;10.10;;;;;;;;;;4954116;28;20206;-75
2022/05/10 05:24:22;;;;;;;12.40;10.30;;;;;;;;;;4946470;29;20203;-75
2022/05/10 05:26:52;;;;;;;12.47;10.60;;;;;;;;;;4943703;28;20746;-75
2022/05/10 05:29:19;;;;;;;11.67;10.47;;;;;;;;;;4947619;29;20210;-74
2022/05/10 05:31:47;;;;;;;8.90;8.10;;;;;;;;;;4947095;28;20199;-74
2022/05/10 05:34:14;;;;;;;11.00;8.37;;;;;;;;;;4939244;29;20638;-74
2022/05/10 05:36:42;;;;;;;10.43;9.30;;;;;;;;;;4943249;28;20237;-74
2022/05/10 05:39:14;;;;;;;11.90;9.00;;;;;;;;;;4949155;28;20241;-74
2022/05/10 05:44:35;;;;;;;11.13;9.03;;;;;;;;;;5692282;23;24135;-75
2022/05/10 05:47:03;;;;;;;11.13;9.50;;;;;;;;;;4930470;29;20314;-78
2022/05/10 05:49:30;;;;;;;10.90;9.37;;;;;;;;;;4935879;29;20228;-77
2022/05/10 05:51:57;;;;;;;11.07;8.93;;;;;;;;;;4933725;29;20249;-77
2022/05/10 05:54:26;;;;;;;12.37;9.33;;;;;;;;;;4933483;29;20212;-76
2022/05/10 05:57:00;;;;;;;12.20;10.40;;;;;;;;;;4936555;29;20251;-77
2022/05/10 05:59:27;;;;;;;11.70;9.53;;;;;;;;;;4928793;29;20228;-76
2022/05/10 06:01:54;;;;;;;12.07;9.90;;;;;;;;;;4929966;29;20683;-78
2022/05/10 06:04:22;;;;;;;10.13;8.93;;;;;;;;;;4934317;29;20247;-77
2022/05/10 06:06:49;;;;;;;10.23;8.87;;;;;;;;;;4930154;29;20656;-78
2022/05/10 06:09:19;;;;;;;11.10;8.87;;;;;;;;;;4931010;29;20255;-78
2022/05/10 06:11:48;;;;;;;11.07;8.17;;;;;;;;;;4934950;29;20203;-78
2022/05/10 06:14:15;;;;;;;10.17;8.90;;;;;;;;;;4934425;29;20607;-78
2022/05/10 06:16:43;;;;;;;9.88;8.88;;;;;;;;;;4935032;29;20263;-78
2022/05/10 06:19:10;;;;;;;10.38;8.85;;;;;;;;;;4934914;29;20290;-77
2022/05/10 06:21:37;;;;;;;11.40;9.13;;;;;;;;;;4935161;29;20288;-77
2022/05/10 06:24:04;;;;;;;10.88;9.88;;;;;;;;;;4935993;29;20235;-77
2022/05/10 06:26:32;;;;;;;11.80;10.45;;;;;;;;;;4935593;29;20263;-79
2022/05/10 06:29:00;;;;;;;10.85;9.55;;;;;;;;;;4935343;29;20267;-79
2022/05/10 06:31:27;;;;;;;11.93;9.88;;;;;;;;;;4935864;29;20235;-79
2022/05/10 06:33:55;;;;;;;14.13;10.25;;;;;;;;;;4935999;29;20214;-79
2022/05/10 06:36:22;;;;;;;10.80;9.70;;;;;;;;;;4935602;29;20307;-79
2022/05/10 06:38:49;;;;;;;11.50;10.30;;;;;;;;;;4935546;29;20335;-79
2022/05/10 06:41:16;;;;;;;14.27;10.82;;;;;;;;;;4935542;29;20238;-79
2022/05/10 06:43:43;;;;;;;11.93;10.65;;;;;;;;;;4935115;29;20231;-79
2022/05/10 06:46:12;;;;;;;11.73;10.27;;;;;;;;;;4935002;29;20719;-79
2022/05/10 06:48:40;;;;;;;14.35;10.30;;;;;;;;;;4935440;29;20326;-80
2022/05/10 06:51:07;;;;;;;9.93;9.02;;;;;;;;;;4935120;29;20200;-80
2022/05/10 06:53:35;;;;;;;12.45;9.75;;;;;;;;;;4935386;29;20212;-79
2022/05/10 06:56:02;;;;;;;10.77;9.70;;;;;;;;;;4935119;29;20227;-80
2022/05/10 06:58:29;;;;;;;11.43;9.73;;;;;;;;;;4935334;29;20231;-79
2022/05/10 07:00:57;;;;;;;10.77;9.23;;;;;;;;;;4935191;29;20226;-79
2022/05/10 07:03:28;;;;;;;10.05;9.05;;;;;;;;;;4935137;29;20291;-79
2022/05/10 07:05:56;;;;;;;12.52;9.45;;;;;;;;;;4935363;29;20208;-80
2022/05/10 07:08:23;;;;;;;12.73;8.57;;;;;;;;;;4934597;29;20255;-79
2022/05/10 07:10:50;;;;;;;11.00;9.40;;;;;;;;;;4935163;29;20809;-80
2022/05/10 07:13:18;;;;;;;9.80;8.88;;;;;;;;;;4935099;29;20208;-79
2022/05/10 07:15:46;;;;;;;10.13;8.30;;;;;;;;;;4935093;29;20239;-79
2022/05/10 07:18:13;;;;;;;8.77;7.20;;;;;;;;;;4935189;29;20214;-79
2022/05/10 07:20:42;;;;;;;9.32;7.03;;;;;;;;;;4935142;29;20629;-79
2022/05/10 07:23:10;;;;;;;8.55;6.70;;;;;;;;;;4934748;29;20246;-79
2022/05/10 07:25:38;;;;;;;10.20;7.75;;;;;;;;;;4934880;29;20216;-79
2022/05/10 07:28:06;;;;;;;7.40;6.70;;;;;;;;;;4934270;29;20257;-79
2022/05/10 07:30:34;;;;;;;7.03;6.30;;;;;;;;;;4935425;29;20203;-79
2022/05/10 07:33:01;;;;;;;8.13;6.10;;;;;;;;;;4934858;29;20298;-79
2022/05/10 07:38:16;;;;;;;5.93;5.30;;;;;;;;;;4934545;29;20549;-79
2022/05/10 07:40:44;;;;;;;8.18;6.32;;;;;;;;;;4934623;29;20342;-79
2022/05/10 07:43:12;;;;;;;7.60;6.00;;;;;;;;;;4935138;29;20208;-80
2022/05/10 07:45:40;;;;;;;6.10;5.35;;;;;;;;;;4934113;29;20239;-80
2022/05/10 07:48:07;;;;;;;7.80;4.00;;;;;;;;;;4934993;29;20323;-79
2022/05/10 07:50:35;;;;;;;8.48;4.00;;;;;;;;;;4918668;29;20311;-79
2022/05/10 07:53:06;;;;;;;7.65;4.15;;;;;;;;;;4915860;29;20268;-79
2022/05/10 07:55:35;;;;;;;5.75;4.38;;;;;;;;;;4915662;29;20219;-79
2022/05/10 07:58:04;;;;;;;6.38;4.68;;;;;;;;;;4915923;29;20287;-80
2022/05/10 08:00:31;;;;;;;8.30;5.57;;;;;;;;;;4916204;29;20208;-80
2022/05/10 08:02:58;;;;;;;5.82;4.82;;;;;;;;;;4915540;29;20364;-79
2022/05/10 08:05:27;;;;;;;6.63;4.68;;;;;;;;;;4915955;29;20236;-79
2022/05/10 08:07:54;;;;;;;6.13;4.28;;;;;;;;;;4915586;29;20268;-80
2022/05/10 08:10:21;;;;;;;4.82;3.30;;;;;;;;;;4916313;29;20885;-80
2022/05/10 08:12:50;;;;;;;4.22;3.50;;;;;;;;;;4915741;29;20239;-80
2022/05/10 08:15:17;;;;;;;5.03;3.20;;;;;;;;;;4915572;29;20645;-79
2022/05/10 08:17:44;;;;;;;3.22;2.80;;;;;;;;;;4915864;29;20243;-80
2022/05/10 08:20:12;;;;;;;3.20;2.90;;;;;;;;;;4915775;29;20715;-79
2022/05/10 08:22:40;;;;;;;5.18;2.70;;;;;;;;;;4915058;29;20196;-79
2022/05/10 08:25:08;;;;;;;5.18;3.10;;;;;;;;;;4915501;29;20236;-78
2022/05/10 08:27:35;;;;;;;3.28;2.75;;;;;;;;;;4919198;29;20243;-78
2022/05/10 08:30:04;;;;;;;3.33;2.70;;;;;;;;;;4919285;29;20267;-78
2022/05/10 08:32:31;;;;;;;5.07;2.65;;;;;;;;;;4919652;29;20292;-79
2022/05/10 08:34:58;;;;;;;3.97;2.88;;;;;;;;;;4919278;29;20621;-78
2022/05/10 08:37:25;;;;;;;4.22;3.25;;;;;;;;;;4919234;29;20301;-78
2022/05/10 08:39:52;;;;;;;7.65;2.70;;;;;;;;;;4918979;29;20728;-78
2022/05/10 08:42:21;;;;;;;3.72;2.75;;;;;;;;;;4919226;29;20287;-79
2022/05/10 08:44:52;;;;;;;3.10;2.40;;;;;;;;;;4918998;29;20232;-78
2022/05/10 08:47:21;;;;;;;3.42;2.40;;;;;;;;;;4937788;29;20239;-78
2022/05/10 08:49:49;;;;;;;2.67;2.38;;;;;;;;;;4937477;29;20323;-79
2022/05/10 08:52:17;;;;;;;4.55;2.50;;;;;;;;;;4937647;29;20279;-78
2022/05/10 08:54:46;;;;;;;2.85;2.08;;;;;;;;;;4936829;29;20243;-78
2022/05/10 08:57:16;;;;;;;4.47;2.17;;;;;;;;;;4937419;29;20200;-78
2022/05/10 08:59:46;;;;;;;3.33;2.10;;;;;;;;;;4937655;29;20235;-79
2022/05/10 09:02:16;;;;;;;4.90;2.10;;;;;;;;;;4937462;29;20703;-78
2022/05/10 09:04:48;;;;;;;4.25;2.28;;;;;;;;;;4937819;29;20200;-79
2022/05/10 09:07:20;;;;;;;3.67;2.05;;;;;;;;;;4937704;29;20204;-79
2022/05/10 09:09:56;;;;;;;4.68;2.10;;;;;;;;;;4937210;29;20258;-78
2022/05/10 09:12:24;;;;;;;3.30;2.10;;;;;;;;;;4937792;29;20214;-79
2022/05/10 09:14:54;;;;;;;2.90;1.73;;;;;;;;;;4937495;29;20295;-79
2022/05/10 09:17:22;;;;;;;3.30;1.90;;;;;;;;;;4937542;29;20242;-79
2022/05/10 09:19:51;;;;;;;4.30;2.03;;;;;;;;;;4937266;29;20210;-78
2022/05/10 09:22:24;;;;;;;6.22;2.40;;;;;;;;;;4936907;29;20298;-78
2022/05/10 09:24:53;;;;;;;3.53;2.08;;;;;;;;;;4936753;29;20242;-79
2022/05/10 09:27:24;;;;;;;4.95;2.15;;;;;;;;;;4936916;29;20208;-78
2022/05/10 09:29:52;;;;;;;6.80;2.17;;;;;;;;;;4937027;29;20235;-78
2022/05/10 09:35:12;;;;;;;4.38;2.20;;;;;;;;;;4937179;29;20207;-78
2022/05/10 09:37:40;;;;;;;2.65;1.70;;;;;;;;;;4935871;29;20199;-78
2022/05/10 09:40:12;;;;;;;6.28;2.67;;;;;;;;;;4936909;29;20259;-79
2022/05/10 09:42:41;;;;;;;6.32;2.50;;;;;;;;;;4937125;29;20235;-79
2022/05/10 09:45:12;;;;;;;6.55;2.33;;;;;;;;;;4936751;29;20338;-79
2022/05/10 09:47:40;;;;;;;4.55;2.42;;;;;;;;;;4936960;29;20210;-78
2022/05/10 09:50:17;;;;;;;3.80;3.00;;;;;;;;;;4936393;29;20692;-79
2022/05/10 09:52:44;;;;;;;4.47;3.25;;;;;;;;;;4935869;29;20255;-79
2022/05/10 09:55:17;;;;;;;17.00;3.40;;;;;;;;;;4936468;29;20594;-78
2022/05/10 09:57:46;;;;;;;8.48;3.15;;;;;;;;;;4936934;29;20287;-78
2022/05/10 10:00:15;;;;;;;6.60;3.33;;;;;;;;;;4936580;29;20251;-79
2022/05/10 10:02:43;;;;;;;4.03;3.05;;;;;;;;;;4936351;29;20203;-78
2022/05/10 10:05:24;;;;;;;7.30;2.70;;;;;;;;;;4936242;29;20287;-78
2022/05/10 10:07:53;;;;;;;4.68;2.63;;;;;;;;;;4934471;29;20663;-78
2022/05/10 10:10:24;;;;;;;7.68;2.60;;;;;;;;;;4936059;29;20314;-78
2022/05/10 10:12:52;;;;;;;5.82;2.50;;;;;;;;;;4936403;29;20243;-78
2022/05/10 10:15:24;;;;;;;4.40;2.70;;;;;;;;;;4936437;29;20243;-79
2022/05/10 10:17:52;;;;;;;7.45;2.63;;;;;;;;;;4936552;29;20204;-78
2022/05/10 10:20:24;;;;;;;4.60;2.40;;;;;;;;;;4935973;29;20249;-78
2022/05/10 10:22:54;;;;;;;4.90;2.42;;;;;;;;;;4935850;29;20727;-79
2022/05/10 10:25:25;;;;;;;4.35;2.40;;;;;;;;;;4935946;29;20243;-78
2022/05/10 10:27:56;;;;;;;3.28;2.40;;;;;;;;;;4936060;29;20286;-79
2022/05/10 10:30:24;;;;;;;3.97;2.50;;;;;;;;;;4936091;29;20298;-78
2022/05/10 10:32:54;;;;;;;4.25;2.50;;;;;;;;;;4936011;29;20208;-78
2022/05/10 10:35:29;;;;;;;4.32;2.40;;;;;;;;;;4935510;29;20763;-79
2022/05/10 10:37:58;;;;;;;2.42;2.22;;;;;;;;;;4936229;29;20263;-78
2022/05/10 10:40:31;;;;;;;4.43;2.55;;;;;;;;;;4935872;29;20208;-78
2022/05/10 10:43:02;;;;;;;3.17;2.25;;;;;;;;;;4935502;29;20212;-78
2022/05/10 10:45:33;;;;;;;3.15;2.28;;;;;;;;;;4935573;29;20715;-78
2022/05/10 10:48:03;;;;;;;3.25;2.30;;;;;;;;;;4935376;29;20218;-78
2022/05/10 10:50:32;;;;;;;2.33;2.03;;;;;;;;;;4935115;29;20295;-78
2022/05/10 10:53:00;;;;;;;4.95;2.13;;;;;;;;;;4935483;29;20243;-78
2022/05/10 10:55:31;;;;;;;3.90;2.08;;;;;;;;;;4935326;29;20267;-78
2022/05/10 10:58:03;;;;;;;3.35;2.25;;;;;;;;;;4935600;29;20243;-79
2022/05/10 11:00:34;;;;;;;4.55;2.20;;;;;;;;;;4935716;29;20200;-78
2022/05/10 11:03:08;;;;;;;3.13;2.20;;;;;;;;;;4935575;29;20203;-78
2022/05/10 11:05:40;;;;;;;2.60;2.30;;;;;;;;;;4934984;29;20242;-79
2022/05/10 11:08:13;;;;;;;3.28;1.90;;;;;;;;;;4935485;29;20634;-79
2022/05/10 11:10:45;;;;;;;3.83;2.28;;;;;;;;;;4935197;29;20649;-78
2022/05/10 11:13:21;;;;;;;5.03;2.45;;;;;;;;;;4935341;29;20242;-78
2022/05/10 11:15:58;;;;;;;3.53;2.50;;;;;;;;;;4935175;29;20282;-78
2022/05/10 11:18:34;;;;;;;3.10;2.30;;;;;;;;;;4934900;29;20251;-78
2022/05/10 11:21:09;;;;;;;4.38;2.22;;;;;;;;;;4935406;29;20690;-78
2022/05/10 11:23:44;;;;;;;3.17;2.40;;;;;;;;;;4935071;29;20210;-79
2022/05/10 11:26:23;;;;;;;5.03;2.40;;;;;;;;;;4935275;29;20203;-78
2022/05/10 11:29:11;;;;;;;4.18;2.25;;;;;;;;;;4935116;29;20618;-78
2022/05/10 11:31:42;;;;;;;4.65;2.60;;;;;;;;;;4930103;29;20311;-78
2022/05/10 11:34:18;;;;;;;2.30;2.10;;;;;;;;;;4934530;29;20299;-78
2022/05/10 11:36:48;;;;;;;3.50;2.40;;;;;;;;;;4934583;29;20203;-78
2022/05/10 11:39:30;;;;;;;5.45;2.40;;;;;;;;;;4934735;29;20192;-78
2022/05/10 11:42:06;;;;;;;2.47;2.25;;;;;;;;;;4933492;29;20271;-78
2022/05/10 11:44:50;;;;;;;4.90;2.75;;;;;;;;;;4934787;29;20204;-78
2022/05/10 11:47:51;;;;;;;4.38;2.30;;;;;;;;;;4934314;29;20291;-78
2022/05/10 11:50:23;;;;;;;4.28;2.40;;;;;;;;;;4934946;29;20267;-79
2022/05/10 11:53:09;;;;;;;4.13;2.22;;;;;;;;;;4934946;29;20235;-79
2022/05/10 11:55:38;;;;;;;2.97;2.50;;;;;;;;;;4934719;29;20303;-79
2022/05/10 11:58:08;;;;;;;4.40;2.30;;;;;;;;;;4934289;29;20235;-79
2022/05/10 12:00:50;;;;;;;4.22;2.55;;;;;;;;;;4935534;29;20235;-79
2022/05/10 12:03:32;;;;;;;3.40;2.22;;;;;;;;;;4938144;29;20250;-79
2022/05/10 12:06:26;;;;;;;4.63;2.22;;;;;;;;;;4938110;29;20207;-79
2022/05/10 12:08:55;;;;;;;3.97;2.30;;;;;;;;;;4938439;29;20235;-78
2022/05/10 12:11:40;;;;;;;4.32;2.13;;;;;;;;;;4938364;29;20683;-79
2022/05/10 12:22:58;;;;;;;4.05;2.00;;;;;;;;;;4938413;29;20218;-79
2022/05/10 12:25:52;;;;;;;5.53;2.40;;;;;;;;;;4938251;29;20203;-79
2022/05/10 12:28:41;;;;;;;2.38;2.17;;;;;;;;;;4938408;29;20283;-78
2022/05/10 12:31:47;;;;;;;4.20;2.28;;;;;;;;;;4937879;29;20262;-78
2022/05/10 12:34:34;;;;;;;6.28;2.55;;;;;;;;;;4938095;29;20294;-79
2022/05/10 12:37:17;;;;;;;2.95;1.95;;;;;;;;;;4937697;29;20281;-79
2022/05/10 12:39:45;;;;;;;3.33;2.10;;;;;;;;;;4937705;29;20204;-79
2022/05/10 12:42:16;;;;;;;3.60;2.25;;;;;;;;;;4938321;29;20231;-79
2022/05/10 12:44:55;;;;;;;2.78;2.20;;;;;;;;;;4937886;29;20622;-79
2022/05/10 12:47:53;;;;;;;3.03;2.25;;;;;;;;;;4937670;29;20631;-79
2022/05/10 12:50:22;;;;;;;2.63;2.15;;;;;;;;;;4878945;29;20233;-78
2022/05/10 12:52:49;;;;;;;5.35;2.20;;;;;;;;;;4878917;29;20638;-79
2022/05/10 12:55:21;;;;;;;2.72;2.17;;;;;;;;;;4878870;29;20318;-79
2022/05/10 12:57:54;;;;;;;4.78;2.10;;;;;;;;;;4878721;29;20292;-79
2022/05/10 13:00:23;;;;;;;2.70;2.40;;;;;;;;;;4878522;29;20206;-79
2022/05/10 13:02:53;;;;;;;4.15;2.33;;;;;;;;;;4878773;29;20242;-79
2022/05/10 13:05:24;;;;;;;3.50;2.53;;;;;;;;;;4879052;29;20288;-79
2022/05/10 13:08:10;;;;;;;6.15;2.28;;;;;;;;;;4879081;29;20222;-79
2022/05/10 13:10:37;;;;;;;4.13;2.30;;;;;;;;;;4859830;29;20226;-79
2022/05/10 13:13:08;;;;;;;3.45;2.20;;;;;;;;;;4870862;29;20661;-79
2022/05/10 13:15:41;;;;;;;6.35;2.22;;;;;;;;;;4878138;29;20249;-79
2022/05/10 13:18:12;;;;;;;5.28;2.72;;;;;;;;;;4878695;29;20387;-79
2022/05/10 13:20:45;;;;;;;3.75;2.20;;;;;;;;;;4878497;29;20206;-79
2022/05/10 13:23:12;;;;;;;11.25;2.92;;;;;;;;;;4878732;29;20399;-78
2022/05/10 13:25:41;;;;;;;5.78;2.25;;;;;;;;;;4936087;29;20647;-79
2022/05/10 13:28:12;;;;;;;2.55;2.33;;;;;;;;;;4936957;29;20643;-79
2022/05/10 13:30:40;;;;;;;2.83;2.10;;;;;;;;;;4936450;29;20745;-78
2022/05/10 13:33:07;;;;;;;3.42;2.38;;;;;;;;;;4937468;29;20231;-78
2022/05/10 13:35:36;;;;;;;4.40;2.05;;;;;;;;;;4937155;29;20212;-79
2022/05/10 13:38:05;;;;;;;3.20;2.20;;;;;;;;;;4937320;29;20242;-78
2022/05/10 13:40:35;;;;;;;6.18;2.25;;;;;;;;;;4937073;29;20644;-79
2022/05/10 13:43:08;;;;;;;4.72;2.22;;;;;;;;;;4936260;29;20235;-78
2022/05/10 13:45:37;;;;;;;4.82;2.35;;;;;;;;;;4936322;29;20682;-78
2022/05/10 13:48:07;;;;;;;5.45;2.28;;;;;;;;;;4936918;29;20208;-78
2022/05/10 13:50:34;;;;;;;3.97;2.20;;;;;;;;;;4936887;29;20282;-79
2022/05/10 13:53:03;;;;;;;5.57;2.03;;;;;;;;;;4936724;29;20243;-78
2022/05/10 13:55:30;;;;;;;4.18;2.42;;;;;;;;;;4936563;29;20295;-78
2022/05/10 13:58:00;;;;;;;3.90;1.92;;;;;;;;;;4935937;29;20238;-78
2022/05/10 14:00:31;;;;;;;2.67;2.00;;;;;;;;;;4937005;29;20202;-78
2022/05/10 14:03:00;;;;;;;3.83;2.05;;;;;;;;;;4936931;29;20235;-79
2022/05/10 14:05:29;;;;;;;3.70;2.17;;;;;;;;;;4936171;29;20290;-79
2022/05/10 14:07:59;;;;;;;5.88;2.42;;;;;;;;;;4936155;29;20208;-78
2022/05/10 14:10:28;;;;;;;4.40;1.83;;;;;;;;;;4936272;29;20327;-79
2022/05/10 14:12:57;;;;;;;3.28;1.98;;;;;;;;;;4935655;29;20231;-79
2022/05/10 14:15:27;;;;;;;6.35;2.22;;;;;;;;;;4936708;29;20204;-79
2022/05/10 14:17:56;;;;;;;2.13;1.90;;;;;;;;;;4935824;29;20240;-79
2022/05/10 14:20:25;;;;;;;3.92;2.00;;;;;;;;;;4936293;29;20231;-79
2022/05/10 14:22:54;;;;;;;4.55;2.05;;;;;;;;;;4935863;29;20664;-79
2022/05/10 14:25:23;;;;;;;3.30;1.88;;;;;;;;;;4936049;29;20294;-79
2022/05/10 14:28:05;;;;;;;4.82;1.90;;;;;;;;;;4935618;29;20650;-78
2022/05/10 14:30:38;;;;;;;3.55;2.10;;;;;;;;;;4935949;29;20238;-78
2022/05/10 14:33:14;;;;;;;5.00;1.85;;;;;;;;;;4936109;29;20606;-78
2022/05/10 14:35:46;;;;;;;4.90;1.90;;;;;;;;;;4935951;29;20290;-79
2022/05/10 14:38:16;;;;;;;2.67;2.20;;;;;;;;;;4935775;29;20304;-78
2022/05/10 14:40:43;;;;;;;2.40;2.20;;;;;;;;;;4935713;29;20318;-79
2022/05/10 14:43:11;;;;;;;4.65;2.03;;;;;;;;;;4935039;29;20631;-79
2022/05/10 14:45:42;;;;;;;9.50;2.00;;;;;;;;;;4935634;29;20306;-79
2022/05/10 14:48:23;;;;;;;1.88;1.70;;;;;;;;;;4936023;29;20208;-78
2022/05/10 14:50:54;;;;;;;6.65;1.70;;;;;;;;;;4935320;29;20396;-79
2022/05/10 14:53:22;;;;;;;4.28;2.10;;;;;;;;;;4935601;29;20219;-78
2022/05/10 14:55:51;;;;;;;2.28;2.00;;;;;;;;;;4935061;29;20250;-78
2022/05/10 14:58:23;;;;;;;3.67;1.73;;;;;;;;;;4935807;29;20211;-78
2022/05/10 15:01:00;;;;;;;2.42;1.88;;;;;;;;;;4935291;29;20251;-78
2022/05/10 15:03:27;;;;;;;3.58;2.00;;;;;;;;;;4935569;29;20302;-79
2022/05/10 15:05:56;;;;;;;4.68;2.22;;;;;;;;;;4935296;29;20302;-78
2022/05/10 15:08:25;;;;;;;3.00;1.83;;;;;;;;;;4935406;29;20211;-79
2022/05/10 15:10:55;;;;;;;3.30;1.90;;;;;;;;;;4934902;29;20235;-77
2022/05/10 15:13:22;;;;;;;3.20;2.00;;;;;;;;;;4935517;29;20207;-78
2022/05/10 15:15:50;;;;;;;5.18;2.10;;;;;;;;;;4934903;29;20232;-78
2022/05/10 15:21:05;;;;;;;3.63;2.10;;;;;;;;;;4934027;29;20218;-78